createdAt,value
2018-07-02T00:01:05.242Z,4.80
2018-07-02T00:03:33.344Z,4.70
2018-07-02T00:06:12.902Z,4.70
2018-07-02T00:08:41.024Z,5.20
2018-07-02T00:11:09.139Z,5.30
2018-07-02T00:13:37.248Z,5.20
2018-07-02T00:16:05.331Z,5.10
2018-07-02T00:18:33.404Z,5.20
2018-07-02T00:21:01.499Z,5.20
2018-07-02T00:23:29.623Z,5.50
2018-07-02T00:25:57.735Z,5.20
2018-07-02T00:28:25.810Z,4.80
2018-07-02T00:30:53.923Z,4.60
2018-07-02T00:33:22.021Z,5.10
2018-07-02T00:35:50.102Z,5.30
2018-07-02T00:38:18.184Z,6.00
2018-07-02T00:40:46.267Z,6.00
2018-07-02T00:43:14.329Z,5.60
2018-07-02T00:45:42.426Z,5.50
2018-07-02T00:48:10.512Z,5.50
2018-07-02T00:50:38.625Z,5.70
2018-07-02T00:53:06.706Z,5.90
2018-07-02T00:55:34.843Z,5.70
2018-07-02T00:58:02.926Z,5.50
2018-07-02T01:00:31.013Z,5.40
2018-07-02T01:02:59.086Z,5.50
2018-07-02T01:05:27.189Z,6.30
2018-07-02T01:07:55.310Z,6.20
2018-07-02T01:10:23.395Z,6.20
2018-07-02T01:12:51.487Z,5.80
2018-07-02T01:15:19.590Z,6.20
2018-07-02T01:17:47.660Z,6.20
2018-07-02T01:20:15.747Z,6.20
2018-07-02T01:22:43.841Z,6.20
2018-07-02T01:25:11.929Z,6.20
2018-07-02T01:27:40.023Z,6.20
2018-07-02T01:30:08.109Z,6.10
2018-07-02T01:35:04.082Z,6.10
2018-07-02T01:37:32.282Z,6.10
2018-07-02T01:40:00.374Z,6.00
2018-07-02T01:42:28.485Z,6.10
2018-07-02T01:44:56.578Z,6.00
2018-07-02T01:47:24.666Z,6.10
2018-07-02T01:49:52.754Z,6.60
2018-07-02T01:52:20.844Z,6.80
2018-07-02T01:54:48.982Z,6.70
2018-07-02T01:57:17.106Z,7.00
2018-07-02T01:59:45.181Z,7.00
2018-07-02T02:02:13.301Z,7.40
2018-07-02T02:04:41.401Z,7.70
2018-07-02T02:07:09.489Z,8.00
2018-07-02T02:09:37.561Z,7.80
2018-07-02T02:12:05.684Z,7.40
2018-07-02T02:14:33.797Z,7.20
2018-07-02T02:17:02.009Z,7.10
2018-07-02T02:19:30.105Z,7.30
2018-07-02T02:21:58.176Z,8.00
2018-07-02T02:24:26.265Z,7.30
2018-07-02T02:26:54.353Z,7.50
2018-07-02T02:31:50.313Z,7.90
2018-07-02T02:34:18.397Z,7.90
2018-07-02T02:36:46.474Z,7.90
2018-07-02T02:39:14.552Z,8.00
2018-07-02T02:41:42.623Z,7.80
2018-07-02T02:44:10.704Z,7.90
2018-07-02T02:46:38.790Z,8.00
2018-07-02T02:49:06.865Z,7.80
2018-07-02T02:51:34.938Z,7.90
2018-07-02T02:54:03.077Z,8.10
2018-07-02T02:56:31.198Z,8.20
2018-07-02T02:58:59.335Z,8.30
2018-07-02T03:01:27.421Z,8.40
2018-07-02T03:03:55.514Z,8.40
2018-07-02T03:06:23.622Z,8.50
2018-07-02T03:08:51.706Z,8.70
2018-07-02T03:11:19.791Z,8.70
2018-07-02T03:13:47.857Z,8.90
2018-07-02T03:16:15.945Z,8.70
2018-07-02T03:18:44.038Z,8.80
2018-07-02T03:21:12.928Z,8.90
2018-07-02T03:23:41.158Z,8.80
2018-07-02T03:26:09.556Z,9.10
2018-07-02T03:28:37.657Z,9.10
2018-07-02T03:33:33.660Z,9.10
2018-07-02T03:36:01.993Z,9.10
2018-07-02T03:38:31.488Z,9.10
2018-07-02T03:40:59.578Z,9.00
2018-07-02T03:43:27.658Z,9.00
2018-07-02T03:45:55.747Z,9.00
2018-07-02T03:48:23.842Z,9.00
2018-07-02T03:50:51.943Z,9.00
2018-07-02T03:53:20.035Z,9.00
2018-07-02T03:55:48.209Z,9.50
2018-07-02T03:58:16.285Z,9.30
2018-07-02T04:00:44.356Z,9.30
2018-07-02T04:03:12.529Z,9.20
2018-07-02T04:05:40.600Z,8.90
2018-07-02T04:08:08.731Z,8.90
2018-07-02T04:10:36.817Z,8.90
2018-07-02T04:13:04.935Z,8.90
2018-07-02T04:15:33.042Z,9.20
2018-07-02T04:18:01.125Z,9.20
2018-07-02T04:20:29.222Z,9.40
2018-07-02T04:22:57.320Z,9.50
2018-07-02T04:25:25.398Z,9.60
2018-07-02T04:27:53.537Z,9.60
2018-07-02T04:30:21.610Z,9.80
2018-07-02T04:32:49.890Z,9.80
2018-07-02T04:35:17.992Z,9.60
2018-07-02T04:37:46.088Z,9.70
2018-07-02T04:40:14.161Z,9.60
2018-07-02T04:42:42.303Z,9.60
2018-07-02T04:45:10.409Z,9.80
2018-07-02T04:47:38.511Z,9.90
2018-07-02T04:50:06.581Z,10.10
2018-07-02T04:52:34.665Z,10.20
2018-07-02T04:55:02.761Z,10.10
2018-07-02T04:57:30.929Z,10.50
2018-07-02T04:59:59.016Z,10.70
2018-07-02T05:02:27.107Z,10.70
2018-07-02T05:04:55.219Z,11.00
2018-07-02T05:07:23.498Z,11.10
2018-07-02T05:09:51.416Z,11.00
2018-07-02T05:12:19.494Z,11.00
2018-07-02T05:14:47.735Z,11.40
2018-07-02T05:17:15.877Z,11.00
2018-07-02T05:19:43.989Z,10.90
2018-07-02T05:22:12.274Z,11.00
2018-07-02T05:24:40.373Z,10.70
2018-07-02T05:27:08.506Z,11.00
2018-07-02T05:29:36.609Z,11.10
2018-07-02T05:32:04.693Z,11.20
2018-07-02T05:34:32.818Z,9.80
2018-07-02T05:37:00.918Z,10.70
2018-07-02T05:39:29.019Z,11.20
2018-07-02T05:41:57.105Z,11.20
2018-07-02T05:44:25.293Z,10.30
2018-07-02T05:46:53.418Z,10.90
2018-07-02T05:49:21.614Z,11.80
2018-07-02T05:51:49.756Z,12.00
2018-07-02T05:54:17.857Z,11.10
2018-07-02T05:56:46.524Z,11.40
2018-07-02T05:59:14.649Z,11.00
2018-07-02T06:01:42.763Z,10.70
2018-07-02T06:04:10.842Z,10.60
2018-07-02T06:06:38.939Z,11.50
2018-07-02T06:09:08.658Z,10.00
2018-07-02T06:11:37.094Z,10.30
2018-07-02T06:14:05.178Z,9.40
2018-07-02T06:16:33.276Z,9.00
2018-07-02T06:19:01.349Z,9.00
2018-07-02T06:21:29.450Z,8.30
2018-07-02T06:23:57.520Z,7.50
2018-07-02T06:26:25.869Z,7.80
2018-07-02T06:28:53.977Z,9.10
2018-07-02T06:31:22.099Z,9.60
2018-07-02T06:33:50.247Z,9.70
2018-07-02T06:36:18.328Z,9.70
2018-07-02T06:38:46.440Z,8.70
2018-07-02T06:41:14.542Z,7.70
2018-07-02T06:46:10.490Z,8.80
2018-07-02T06:48:38.581Z,8.90
2018-07-02T06:51:06.787Z,9.00
2018-07-02T06:53:34.903Z,9.50
2018-07-02T06:56:02.996Z,8.90
2018-07-02T06:58:31.093Z,9.00
2018-07-02T07:00:59.197Z,8.60
2018-07-02T07:03:27.277Z,8.40
2018-07-02T07:05:55.390Z,7.90
2018-07-02T07:08:23.506Z,8.50
2018-07-02T07:10:51.589Z,7.70
2018-07-02T07:13:19.693Z,7.30
2018-07-02T07:15:48.086Z,7.30
2018-07-02T07:18:16.237Z,7.60
2018-07-02T07:20:44.326Z,5.20
2018-07-02T07:23:12.417Z,4.50
2018-07-02T07:25:40.523Z,4.30
2018-07-02T07:28:08.606Z,3.10
2018-07-02T07:30:36.706Z,4.50
2018-07-02T07:33:04.842Z,5.90
2018-07-02T07:35:32.969Z,5.90
2018-07-02T07:38:01.061Z,4.40
2018-07-02T07:40:29.229Z,2.60
2018-07-02T07:42:57.301Z,5.40
2018-07-02T07:45:25.422Z,2.50
2018-07-02T07:47:53.513Z,4.80
2018-07-02T07:50:21.621Z,3.00
2018-07-02T07:52:49.706Z,5.20
2018-07-02T07:55:17.799Z,4.90
2018-07-02T07:57:45.909Z,4.20
2018-07-02T08:00:14.001Z,3.60
2018-07-02T08:02:44.040Z,4.30
2018-07-02T08:05:12.149Z,4.40
2018-07-02T08:07:40.206Z,3.70
2018-07-02T08:10:08.320Z,4.40
2018-07-02T08:12:36.517Z,4.50
2018-07-02T08:15:04.659Z,4.60
2018-07-02T08:17:32.742Z,4.60
2018-07-02T08:20:00.882Z,4.10
2018-07-02T08:22:28.953Z,4.00
2018-07-02T08:24:57.051Z,3.80
2018-07-02T08:27:25.157Z,3.60
2018-07-02T08:29:53.264Z,1.10
2018-07-02T08:32:21.376Z,2.00
2018-07-02T08:34:49.441Z,3.00
2018-07-02T08:37:17.582Z,3.00
2018-07-02T08:39:45.661Z,3.90
2018-07-02T08:42:13.765Z,3.10
2018-07-02T08:44:41.883Z,1.80
2018-07-02T08:47:09.993Z,1.20
2018-07-02T08:49:38.301Z,1.10
2018-07-02T08:52:06.469Z,1.00
2018-07-02T08:54:34.556Z,1.00
2018-07-02T08:57:02.659Z,1.00
2018-07-02T08:59:30.738Z,1.20
2018-07-02T09:01:58.927Z,1.90
2018-07-02T09:04:27.013Z,1.30
2018-07-02T09:06:55.381Z,1.00
2018-07-02T09:09:23.450Z,1.00
2018-07-02T09:11:51.806Z,1.00
2018-07-02T09:14:19.882Z,1.00
2018-07-02T09:16:47.976Z,1.00
2018-07-02T09:19:16.097Z,1.00
2018-07-02T09:21:44.166Z,1.00
2018-07-02T09:24:12.375Z,1.00
2018-07-02T09:26:40.463Z,1.00
2018-07-02T09:29:08.617Z,1.00
2018-07-02T09:31:36.783Z,1.00
2018-07-02T09:34:04.961Z,1.00
2018-07-02T09:36:33.061Z,1.00
2018-07-02T09:39:01.169Z,1.30
2018-07-02T09:41:29.481Z,1.00
2018-07-02T09:43:57.589Z,1.30
2018-07-02T09:46:25.682Z,1.00
2018-07-02T09:48:53.761Z,1.00
2018-07-02T09:51:21.876Z,1.00
2018-07-02T09:53:50.003Z,1.00
2018-07-02T09:56:18.128Z,1.00
2018-07-02T09:58:46.205Z,1.00
2018-07-02T10:01:14.273Z,1.00
2018-07-02T10:03:42.379Z,1.00
2018-07-02T10:06:10.583Z,1.00
2018-07-02T10:08:38.684Z,1.00
2018-07-02T10:11:06.771Z,1.00
2018-07-02T10:13:34.871Z,1.00
2018-07-02T10:16:02.970Z,1.00
2018-07-02T10:18:31.077Z,1.00
2018-07-02T10:20:59.207Z,1.00
2018-07-02T10:23:27.374Z,1.00
2018-07-02T10:28:23.433Z,1.00
2018-07-02T10:30:51.650Z,1.00
2018-07-02T10:33:19.650Z,1.00
2018-07-02T10:35:47.986Z,1.00
2018-07-02T10:38:16.045Z,1.00
2018-07-02T10:40:44.129Z,1.00
2018-07-02T10:43:12.212Z,1.00
2018-07-02T10:45:40.541Z,1.00
2018-07-02T10:48:08.633Z,1.00
2018-07-02T10:50:36.724Z,1.00
2018-07-02T10:53:04.801Z,1.00
2018-07-02T10:58:00.823Z,1.00
2018-07-02T11:00:28.917Z,1.00
2018-07-02T11:02:57.000Z,1.00
2018-07-02T11:05:25.081Z,1.00
2018-07-02T11:07:53.198Z,1.00
2018-07-02T11:10:21.299Z,1.00
2018-07-02T11:15:17.398Z,1.00
2018-07-02T11:17:45.487Z,1.00
2018-07-02T11:20:13.581Z,1.00
2018-07-02T11:22:42.157Z,1.00
2018-07-02T11:25:10.253Z,1.00
2018-07-02T11:27:38.346Z,1.00
2018-07-02T11:30:06.565Z,1.00
2018-07-02T11:32:34.693Z,1.00
2018-07-02T11:35:02.813Z,1.00
2018-07-02T11:37:30.979Z,1.00
2018-07-02T11:39:59.018Z,1.00
2018-07-02T11:42:27.102Z,1.00
2018-07-02T11:44:55.486Z,1.00
2018-07-02T11:47:23.552Z,1.00
2018-07-02T11:49:51.873Z,1.00
2018-07-02T11:52:20.001Z,1.00
2018-07-02T11:54:48.085Z,1.00
2018-07-02T11:57:16.218Z,1.10
2018-07-02T11:59:44.302Z,2.10
2018-07-02T12:02:12.965Z,1.00
2018-07-02T12:04:41.078Z,1.00
2018-07-02T12:07:09.165Z,1.00
2018-07-02T12:09:37.264Z,1.00
2018-07-02T12:12:05.729Z,1.00
2018-07-02T12:14:33.841Z,1.00
2018-07-02T12:17:01.967Z,1.00
2018-07-02T12:19:30.089Z,1.00
2018-07-02T12:21:58.188Z,1.00
2018-07-02T12:24:26.310Z,1.00
2018-07-02T12:26:54.446Z,1.00
2018-07-02T12:29:22.551Z,1.00
2018-07-02T12:31:50.679Z,1.00
2018-07-02T12:34:18.943Z,1.00
2018-07-02T12:36:47.045Z,1.00
2018-07-02T12:39:15.137Z,1.00
2018-07-02T12:41:43.602Z,1.00
2018-07-02T12:46:41.481Z,1.00
2018-07-02T12:49:09.569Z,1.00
2018-07-02T12:51:37.710Z,1.00
2018-07-02T12:54:05.839Z,1.00
2018-07-02T12:59:01.859Z,1.00
2018-07-02T13:01:29.951Z,1.00
2018-07-02T13:03:58.029Z,1.00
2018-07-02T13:06:27.320Z,1.00
2018-07-02T13:08:56.388Z,1.00
2018-07-02T13:11:24.475Z,1.00
2018-07-02T13:13:52.589Z,1.00
2018-07-02T13:16:20.680Z,1.00
2018-07-02T13:18:48.772Z,1.00
2018-07-02T13:21:17.878Z,1.00
2018-07-02T13:23:46.245Z,1.00
2018-07-02T13:26:14.653Z,1.00
2018-07-02T13:28:42.723Z,1.00
2018-07-02T13:31:10.805Z,1.00
2018-07-02T13:33:39.035Z,1.00
2018-07-02T13:36:07.131Z,1.00
2018-07-02T13:38:35.225Z,1.00
2018-07-02T13:41:03.337Z,1.00
2018-07-02T13:43:31.645Z,1.00
2018-07-02T13:46:00.047Z,1.00
2018-07-02T13:48:28.170Z,1.00
2018-07-02T13:50:56.341Z,1.00
2018-07-02T13:53:24.434Z,1.00
2018-07-02T13:55:52.771Z,1.00
2018-07-02T13:58:20.849Z,1.00
2018-07-02T14:03:16.814Z,1.00
2018-07-02T14:05:44.891Z,1.00
2018-07-02T14:08:12.996Z,1.00
2018-07-02T14:10:41.085Z,1.00
2018-07-02T14:13:09.183Z,1.00
2018-07-02T14:15:37.280Z,1.00
2018-07-02T14:18:05.561Z,1.00
2018-07-02T14:20:33.678Z,1.00
2018-07-02T14:23:01.759Z,1.00
2018-07-02T14:25:30.020Z,1.00
2018-07-02T14:27:58.280Z,1.00
2018-07-02T14:30:26.381Z,1.00
2018-07-02T14:35:22.424Z,1.00
2018-07-02T14:37:50.542Z,1.00
2018-07-02T14:40:18.627Z,1.00
2018-07-02T14:42:46.728Z,1.00
2018-07-02T14:45:14.946Z,1.00
2018-07-02T14:47:42.945Z,1.00
2018-07-02T14:50:11.220Z,1.00
2018-07-02T14:52:39.310Z,1.00
2018-07-02T14:55:07.651Z,1.00
2018-07-02T14:57:35.851Z,1.00
2018-07-02T15:00:04.657Z,1.00
2018-07-02T15:02:32.761Z,1.00
2018-07-02T15:05:00.843Z,1.00
2018-07-02T15:07:29.062Z,1.00
2018-07-02T15:09:57.132Z,1.00
2018-07-02T15:12:25.225Z,1.00
2018-07-02T15:14:53.313Z,1.00
2018-07-02T15:17:21.389Z,1.00
2018-07-02T15:19:49.481Z,1.00
2018-07-02T15:22:17.565Z,1.00
2018-07-02T15:24:45.645Z,1.00
2018-07-02T15:27:13.754Z,1.00
2018-07-02T15:29:41.821Z,1.00
2018-07-02T15:32:09.954Z,1.00
2018-07-02T15:34:38.057Z,1.00
2018-07-02T15:37:06.223Z,1.00
2018-07-02T15:39:34.418Z,1.00
2018-07-02T15:42:02.464Z,1.00
2018-07-02T15:44:30.546Z,1.00
2018-07-02T15:46:58.798Z,1.00
2018-07-02T15:49:26.866Z,1.00
2018-07-02T15:51:54.933Z,1.00
2018-07-02T15:54:23.034Z,1.00
2018-07-02T15:56:51.134Z,1.00
2018-07-02T15:59:19.228Z,1.00
2018-07-02T16:01:47.310Z,1.00
2018-07-02T16:04:15.401Z,1.00
2018-07-02T16:06:43.488Z,1.00
2018-07-02T16:09:12.267Z,1.00
2018-07-02T16:11:40.609Z,1.00
2018-07-02T16:14:08.707Z,1.00
2018-07-02T16:16:36.806Z,1.00
2018-07-02T16:21:32.988Z,1.00
2018-07-02T16:24:01.075Z,1.00
2018-07-02T16:26:29.481Z,1.00
2018-07-02T16:28:57.573Z,1.00
2018-07-02T16:31:25.698Z,1.00
2018-07-02T16:33:53.774Z,1.00
2018-07-02T16:36:21.885Z,1.00
2018-07-02T16:38:50.003Z,1.00
2018-07-02T16:41:18.224Z,1.00
2018-07-02T16:43:46.423Z,1.00
2018-07-02T16:46:14.733Z,1.00
2018-07-02T16:48:43.019Z,1.00
2018-07-02T16:51:11.330Z,1.00
2018-07-02T16:56:07.390Z,1.00
2018-07-02T16:58:35.501Z,1.00
2018-07-02T17:01:03.602Z,1.00
2018-07-02T17:03:31.677Z,1.00
2018-07-02T17:05:59.796Z,1.00
2018-07-02T17:08:28.098Z,1.00
2018-07-02T17:10:56.206Z,1.00
2018-07-02T17:15:52.299Z,1.00
2018-07-02T17:18:20.677Z,1.00
2018-07-02T17:20:48.773Z,1.00
2018-07-02T17:23:16.904Z,1.00
2018-07-02T17:25:44.985Z,1.00
2018-07-02T17:28:13.105Z,1.00
2018-07-02T17:30:41.203Z,1.00
2018-07-02T17:33:09.358Z,1.00
2018-07-02T17:35:37.451Z,1.00
2018-07-02T17:38:05.769Z,1.00
2018-07-02T17:40:33.891Z,1.00
2018-07-02T17:43:02.004Z,1.00
2018-07-02T17:45:30.302Z,1.00
2018-07-02T17:47:58.982Z,1.00
2018-07-02T17:50:27.074Z,1.00
2018-07-02T17:52:55.189Z,1.00
2018-07-02T17:55:23.275Z,1.00
2018-07-02T17:57:51.389Z,1.00
2018-07-02T18:02:47.413Z,1.00
2018-07-02T18:05:15.637Z,1.00
2018-07-02T18:07:43.774Z,1.00
2018-07-02T18:10:11.977Z,1.00
2018-07-02T18:12:40.226Z,1.00
2018-07-02T18:15:08.348Z,1.00
2018-07-02T18:17:36.506Z,1.00
2018-07-02T18:20:04.730Z,1.00
2018-07-02T18:22:32.831Z,1.00
2018-07-02T18:25:00.963Z,1.00
2018-07-02T18:27:29.201Z,1.00
2018-07-02T18:29:57.376Z,1.00
2018-07-02T18:32:25.561Z,1.00
2018-07-02T18:34:53.669Z,1.00
2018-07-02T18:37:21.842Z,1.00
2018-07-02T18:39:50.031Z,1.00
2018-07-02T18:42:18.184Z,1.00
2018-07-02T18:44:46.615Z,1.00
2018-07-02T18:47:14.708Z,1.00
2018-07-02T18:49:42.839Z,1.00
2018-07-02T18:52:11.134Z,1.00
2018-07-02T18:54:39.220Z,1.00
2018-07-02T18:57:07.368Z,1.00
2018-07-02T18:59:35.471Z,1.00
2018-07-02T19:02:03.571Z,1.00
2018-07-02T19:04:31.679Z,1.00
2018-07-02T19:06:59.909Z,1.00
2018-07-02T19:09:28.013Z,1.00
2018-07-02T19:11:56.111Z,1.00
2018-07-02T19:14:24.208Z,1.00
2018-07-02T19:16:52.311Z,1.00
2018-07-02T19:19:20.418Z,1.00
2018-07-02T19:21:48.506Z,1.00
2018-07-02T19:24:16.673Z,1.00
2018-07-02T19:26:44.892Z,1.00
2018-07-02T19:29:13.003Z,1.00
2018-07-02T19:31:41.097Z,1.00
2018-07-02T19:34:09.186Z,1.00
2018-07-02T19:36:37.279Z,1.00
2018-07-02T19:41:36.448Z,1.00
2018-07-02T19:44:04.577Z,1.00
2018-07-02T19:46:32.698Z,1.00
2018-07-02T19:49:01.906Z,1.00
2018-07-02T19:51:29.994Z,1.00
2018-07-02T19:53:58.099Z,1.00
2018-07-02T19:58:55.096Z,1.00
2018-07-02T20:01:23.195Z,1.00
2018-07-02T20:03:51.297Z,1.00
2018-07-02T20:08:47.261Z,1.00
2018-07-02T20:11:15.333Z,1.00
2018-07-02T20:13:43.480Z,1.00
2018-07-02T20:16:11.541Z,1.00
2018-07-02T20:18:39.808Z,1.00
2018-07-02T20:21:07.915Z,1.00
2018-07-02T20:23:36.054Z,1.00
2018-07-02T20:26:04.157Z,1.00
2018-07-02T20:28:32.603Z,1.00
2018-07-02T20:33:28.846Z,1.00
2018-07-02T20:35:57.121Z,1.00
2018-07-02T20:38:25.348Z,1.00
2018-07-02T20:40:53.409Z,1.00
2018-07-02T20:43:21.539Z,1.00
2018-07-02T20:45:49.670Z,1.00
2018-07-02T20:48:17.779Z,1.00
2018-07-02T20:50:46.205Z,1.00
2018-07-02T20:53:14.368Z,1.00
2018-07-02T20:55:42.486Z,1.00
2018-07-02T20:58:10.697Z,1.00
2018-07-02T21:00:38.858Z,1.00
2018-07-02T21:03:07.051Z,1.20
2018-07-02T21:05:35.246Z,1.50
2018-07-02T21:08:03.366Z,1.00
2018-07-02T21:10:31.665Z,1.60
2018-07-02T21:12:59.629Z,1.50
2018-07-02T21:15:27.831Z,1.40
2018-07-02T21:17:55.925Z,1.90
2018-07-02T21:20:24.215Z,2.30
2018-07-02T21:22:52.354Z,2.40
2018-07-02T21:25:20.479Z,1.60
2018-07-02T21:27:48.633Z,1.20
2018-07-02T21:30:16.786Z,2.00
2018-07-02T21:32:44.894Z,2.80
2018-07-02T21:37:41.006Z,3.10
2018-07-02T21:40:09.178Z,2.30
2018-07-02T21:42:37.326Z,3.60
2018-07-02T21:45:05.506Z,3.00
2018-07-02T21:47:33.597Z,2.90
2018-07-02T21:50:01.699Z,2.70
2018-07-02T21:54:57.715Z,5.80
2018-07-02T21:57:25.848Z,5.50
2018-07-02T21:59:53.947Z,7.10
2018-07-02T22:02:22.055Z,7.40
2018-07-02T22:07:18.238Z,8.30
2018-07-02T22:09:46.341Z,7.60
2018-07-02T22:12:14.446Z,4.20
2018-07-02T22:14:42.578Z,3.30
2018-07-02T22:17:10.691Z,4.00
2018-07-02T22:19:38.865Z,5.00
2018-07-02T22:22:07.095Z,4.30
2018-07-02T22:24:35.192Z,3.40
2018-07-02T22:27:03.319Z,3.40
2018-07-02T22:29:31.425Z,3.20
2018-07-02T22:31:59.560Z,3.60
2018-07-02T22:34:27.670Z,3.30
2018-07-02T22:36:55.785Z,3.00
2018-07-02T22:39:24.062Z,2.90
2018-07-02T22:41:52.159Z,2.70
2018-07-02T22:44:20.273Z,2.90
2018-07-02T22:46:48.368Z,2.90
2018-07-02T22:49:16.455Z,2.70
2018-07-02T22:51:44.531Z,2.80
2018-07-02T22:54:12.878Z,2.70
2018-07-02T22:56:40.998Z,2.80
2018-07-02T22:59:09.185Z,2.70
2018-07-02T23:01:37.626Z,2.90
2018-07-02T23:04:05.847Z,2.70
2018-07-02T23:06:34.073Z,2.70
2018-07-02T23:09:02.166Z,2.80
2018-07-02T23:11:30.277Z,2.90
2018-07-02T23:13:58.722Z,3.10
2018-07-02T23:16:26.839Z,2.80
2018-07-02T23:18:54.932Z,2.90
2018-07-02T23:21:23.044Z,3.10
2018-07-02T23:23:51.133Z,3.10
2018-07-02T23:26:19.248Z,3.10
2018-07-02T23:28:47.345Z,3.50
2018-07-02T23:31:15.468Z,3.40
2018-07-02T23:33:43.598Z,4.10
2018-07-02T23:36:11.713Z,3.50
2018-07-02T23:38:39.833Z,3.40
2018-07-02T23:41:07.973Z,3.60
2018-07-02T23:43:36.310Z,3.60
2018-07-02T23:48:32.582Z,3.50
2018-07-02T23:51:00.706Z,3.50
2018-07-02T23:53:28.838Z,3.60
2018-07-02T23:55:56.931Z,3.70
2018-07-02T23:58:25.115Z,3.90
